createdAt,value
2018-03-23T00:02:09.889Z,100.00
2018-03-23T00:04:38.384Z,100.00
2018-03-23T00:07:06.822Z,100.00
2018-03-23T00:09:35.284Z,100.00
2018-03-23T00:12:03.785Z,100.00
2018-03-23T00:14:32.229Z,100.00
2018-03-23T00:17:00.679Z,100.00
2018-03-23T00:19:29.171Z,100.00
2018-03-23T00:21:57.618Z,100.00
2018-03-23T00:24:26.058Z,100.00
2018-03-23T00:26:54.553Z,100.00
2018-03-23T00:29:22.985Z,100.00
2018-03-23T00:31:51.426Z,100.00
2018-03-23T00:34:19.901Z,100.00
2018-03-23T00:36:48.339Z,100.00
2018-03-23T00:39:16.777Z,100.00
2018-03-23T00:41:45.275Z,100.00
2018-03-23T00:44:13.718Z,100.00
2018-03-23T00:46:42.153Z,100.00
2018-03-23T00:49:10.634Z,100.00
2018-03-23T00:51:39.069Z,100.00
2018-03-23T00:54:07.526Z,100.00
2018-03-23T00:56:36.022Z,100.00
2018-03-23T00:59:04.505Z,100.00
2018-03-23T01:01:32.941Z,100.00
2018-03-23T01:04:01.426Z,100.00
2018-03-23T01:06:29.859Z,100.00
2018-03-23T01:08:58.325Z,100.00
2018-03-23T01:11:26.806Z,100.00
2018-03-23T01:13:55.240Z,100.00
2018-03-23T01:16:23.681Z,100.00
2018-03-23T01:18:52.199Z,100.00
2018-03-23T01:21:20.657Z,100.00
2018-03-23T01:23:49.102Z,100.00
2018-03-23T01:26:17.603Z,100.00
2018-03-23T01:28:46.058Z,100.00
2018-03-23T01:31:14.510Z,100.00
2018-03-23T01:33:42.989Z,100.00
2018-03-23T01:36:11.456Z,100.00
2018-03-23T01:38:39.889Z,100.00
2018-03-23T01:41:08.362Z,100.00
2018-03-23T01:43:36.796Z,100.00
2018-03-23T01:46:05.241Z,100.00
2018-03-23T01:48:33.730Z,100.00
2018-03-23T01:51:02.200Z,100.00
2018-03-23T01:53:43.390Z,100.00
2018-03-23T01:56:11.876Z,100.00
2018-03-23T01:58:40.317Z,100.00
2018-03-23T02:01:08.849Z,100.00
2018-03-23T02:03:37.295Z,100.00
2018-03-23T02:06:05.725Z,100.00
2018-03-23T02:08:34.204Z,100.00
2018-03-23T02:11:02.639Z,100.00
2018-03-23T02:13:31.070Z,100.00
2018-03-23T02:15:59.573Z,100.00
2018-03-23T02:18:28.002Z,100.00
2018-03-23T02:20:56.462Z,100.00
2018-03-23T02:23:25.144Z,100.00
2018-03-23T02:25:53.583Z,100.00
2018-03-23T02:28:22.018Z,100.00
2018-03-23T02:30:50.506Z,100.00
2018-03-23T02:33:18.947Z,100.00
2018-03-23T02:35:47.387Z,100.00
2018-03-23T02:38:15.871Z,100.00
2018-03-23T02:40:44.302Z,100.00
2018-03-23T02:43:12.754Z,100.00
2018-03-23T02:45:41.258Z,100.00
2018-03-23T02:48:09.697Z,100.00
2018-03-23T02:50:38.134Z,100.00
2018-03-23T02:53:06.631Z,100.00
2018-03-23T02:55:35.076Z,100.00
2018-03-23T02:58:03.506Z,100.00
2018-03-23T03:00:31.986Z,100.00
2018-03-23T03:03:00.442Z,100.00
2018-03-23T03:05:28.872Z,100.00
2018-03-23T03:07:57.373Z,100.00
2018-03-23T03:10:25.807Z,100.00
2018-03-23T03:12:54.246Z,100.00
2018-03-23T03:15:22.780Z,100.00
2018-03-23T03:17:51.207Z,100.00
2018-03-23T03:20:19.637Z,100.00
2018-03-23T03:22:48.113Z,100.00
2018-03-23T03:25:16.562Z,100.00
2018-03-23T03:27:44.995Z,100.00
2018-03-23T03:30:13.470Z,100.00
2018-03-23T03:32:41.914Z,100.00
2018-03-23T03:35:10.350Z,100.00
2018-03-23T03:37:38.846Z,100.00
2018-03-23T03:40:07.309Z,100.00
2018-03-23T03:42:35.743Z,100.00
2018-03-23T03:47:34.561Z,87.37
2018-03-23T03:50:02.969Z,87.71
2018-03-23T03:52:31.372Z,87.38
2018-03-23T03:54:59.833Z,87.35
2018-03-23T03:57:28.246Z,87.10
2018-03-23T03:59:56.641Z,86.57
2018-03-23T04:02:25.089Z,86.90
2018-03-23T04:04:53.486Z,86.67
2018-03-23T04:07:21.882Z,86.54
2018-03-23T04:09:50.329Z,86.64
2018-03-23T04:12:18.722Z,86.65
2018-03-23T04:14:47.122Z,86.47
2018-03-23T04:17:15.572Z,86.36
2018-03-23T04:19:44.009Z,85.70
2018-03-23T04:22:12.398Z,86.15
2018-03-23T04:24:40.853Z,86.47
2018-03-23T04:27:09.249Z,86.23
2018-03-23T04:29:37.662Z,86.21
2018-03-23T04:32:06.113Z,86.81
2018-03-23T04:34:34.506Z,86.03
2018-03-23T04:37:02.910Z,86.36
2018-03-23T04:39:31.629Z,86.38
2018-03-23T04:42:00.022Z,86.13
2018-03-23T04:44:28.417Z,86.31
2018-03-23T04:46:56.878Z,85.76
2018-03-23T04:49:25.281Z,85.96
2018-03-23T04:51:53.677Z,85.97
2018-03-23T04:54:22.136Z,86.55
2018-03-23T04:56:50.534Z,86.75
2018-03-23T04:59:18.933Z,86.72
2018-03-23T05:01:47.405Z,86.79
2018-03-23T05:04:15.818Z,86.81
2018-03-23T05:06:44.216Z,86.72
2018-03-23T05:09:12.654Z,87.01
2018-03-23T05:11:41.065Z,86.97
2018-03-23T05:14:09.474Z,87.37
2018-03-23T05:16:37.921Z,86.66
2018-03-23T05:19:06.322Z,86.92
2018-03-23T05:21:34.728Z,86.66
2018-03-23T05:24:03.178Z,86.68
2018-03-23T05:26:31.580Z,87.14
2018-03-23T05:28:59.977Z,87.21
2018-03-23T05:31:28.418Z,87.59
2018-03-23T05:33:56.821Z,87.14
2018-03-23T05:36:25.218Z,87.58
2018-03-23T05:38:53.661Z,87.62
2018-03-23T05:41:22.057Z,87.54
2018-03-23T05:43:50.458Z,87.56
2018-03-23T05:46:18.977Z,87.75
2018-03-23T05:48:47.339Z,86.30
2018-03-23T05:51:15.735Z,87.63
2018-03-23T05:53:44.195Z,87.35
2018-03-23T05:56:12.594Z,86.69
2018-03-23T05:58:40.990Z,87.10
2018-03-23T06:01:09.430Z,87.21
2018-03-23T06:03:37.830Z,87.81
2018-03-23T06:06:06.229Z,87.33
2018-03-23T06:08:34.682Z,87.37
2018-03-23T06:11:03.079Z,87.63
2018-03-23T06:13:31.478Z,88.31
2018-03-23T06:15:59.954Z,88.78
2018-03-23T06:18:28.358Z,88.20
2018-03-23T06:20:56.761Z,87.75
2018-03-23T06:23:25.197Z,87.90
2018-03-23T06:25:53.594Z,88.35
2018-03-23T06:28:21.990Z,88.03
2018-03-23T06:30:50.426Z,86.84
2018-03-23T06:33:18.834Z,87.57
2018-03-23T06:35:47.229Z,87.62
2018-03-23T06:38:15.670Z,87.27
2018-03-23T06:40:44.069Z,87.64
2018-03-23T06:43:12.472Z,87.21
2018-03-23T06:45:40.917Z,87.47
2018-03-23T06:48:09.318Z,87.59
2018-03-23T06:50:37.729Z,87.68
2018-03-23T06:53:06.185Z,87.60
2018-03-23T06:55:34.590Z,86.58
2018-03-23T06:58:02.986Z,87.01
2018-03-23T07:00:31.437Z,87.43
2018-03-23T07:02:59.843Z,87.36
2018-03-23T07:05:28.242Z,87.10
2018-03-23T07:07:56.692Z,87.11
2018-03-23T07:10:25.090Z,87.44
2018-03-23T07:12:53.498Z,87.00
2018-03-23T07:15:21.957Z,86.80
2018-03-23T07:17:50.358Z,87.14
2018-03-23T07:20:18.754Z,86.66
2018-03-23T07:22:47.210Z,86.69
2018-03-23T07:25:15.630Z,86.72
2018-03-23T07:27:44.041Z,87.12
2018-03-23T07:30:12.493Z,87.18
2018-03-23T07:32:40.903Z,87.39
2018-03-23T07:35:09.305Z,87.35
2018-03-23T07:37:37.759Z,86.99
2018-03-23T07:40:06.181Z,87.32
2018-03-23T07:42:34.581Z,87.44
2018-03-23T07:45:03.030Z,87.43
2018-03-23T07:47:31.426Z,87.13
2018-03-23T07:49:59.826Z,86.94
2018-03-23T07:52:28.265Z,87.32
2018-03-23T07:54:56.665Z,87.79
2018-03-23T07:57:25.074Z,88.05
2018-03-23T07:59:53.534Z,88.17
2018-03-23T08:02:21.938Z,88.22
2018-03-23T08:04:50.336Z,87.59
2018-03-23T08:07:18.786Z,87.16
2018-03-23T08:09:47.182Z,87.98
2018-03-23T08:12:15.585Z,87.81
2018-03-23T08:14:44.026Z,88.37
2018-03-23T08:17:12.434Z,88.09
2018-03-23T08:19:40.837Z,87.73
2018-03-23T08:22:09.286Z,88.22
2018-03-23T08:24:37.682Z,87.59
2018-03-23T08:27:06.085Z,87.85
2018-03-23T08:29:34.526Z,87.45
2018-03-23T08:32:02.929Z,87.80
2018-03-23T08:34:31.326Z,87.96
2018-03-23T08:36:59.778Z,88.23
2018-03-23T08:39:28.190Z,88.18
2018-03-23T08:41:56.617Z,88.32
2018-03-23T08:44:25.074Z,88.23
2018-03-23T08:46:53.469Z,86.98
2018-03-23T08:49:21.871Z,88.32
2018-03-23T08:51:50.329Z,87.63
2018-03-23T08:54:18.730Z,87.81
2018-03-23T08:56:47.146Z,87.65
2018-03-23T08:59:15.605Z,87.20
2018-03-23T09:01:44.006Z,87.52
2018-03-23T09:04:12.410Z,87.31
2018-03-23T09:06:40.866Z,88.14
2018-03-23T09:09:09.269Z,88.16
2018-03-23T09:11:37.683Z,88.57
2018-03-23T09:14:06.150Z,88.03
2018-03-23T09:16:34.558Z,87.28
2018-03-23T09:19:02.966Z,87.80
2018-03-23T09:21:31.414Z,87.16
2018-03-23T09:23:59.828Z,87.23
2018-03-23T09:26:28.229Z,87.50
2018-03-23T09:28:56.682Z,87.91
2018-03-23T09:31:25.085Z,87.63
2018-03-23T09:33:53.493Z,87.21
2018-03-23T09:36:21.942Z,87.35
2018-03-23T09:38:50.350Z,87.01
2018-03-23T09:41:18.754Z,86.44
2018-03-23T09:43:47.225Z,86.31
2018-03-23T09:46:15.638Z,86.55
2018-03-23T09:48:44.050Z,86.56
2018-03-23T09:51:12.505Z,86.66
2018-03-23T09:53:40.906Z,85.46
2018-03-23T09:56:09.310Z,86.53
2018-03-23T09:58:37.821Z,85.26
2018-03-23T10:01:06.229Z,86.06
2018-03-23T10:03:34.679Z,85.66
2018-03-23T10:06:03.141Z,85.42
2018-03-23T10:08:31.542Z,84.91
2018-03-23T10:10:59.942Z,84.21
2018-03-23T10:13:28.386Z,83.89
2018-03-23T10:15:56.788Z,83.91
2018-03-23T10:18:25.222Z,82.70
2018-03-23T10:20:53.695Z,81.61
2018-03-23T10:23:22.097Z,82.42
2018-03-23T10:25:50.521Z,80.52
2018-03-23T10:28:18.963Z,80.31
2018-03-23T10:30:47.361Z,81.56
2018-03-23T10:33:15.758Z,80.86
2018-03-23T10:35:44.214Z,78.84
2018-03-23T10:38:12.611Z,77.21
2018-03-23T10:40:41.006Z,79.14
2018-03-23T10:43:09.466Z,78.15
2018-03-23T10:45:37.950Z,78.12
2018-03-23T10:48:06.346Z,78.22
2018-03-23T10:50:34.787Z,76.83
2018-03-23T10:53:03.207Z,77.27
2018-03-23T10:55:31.625Z,76.24
2018-03-23T10:58:00.119Z,77.33
2018-03-23T11:00:34.076Z,77.53
2018-03-23T11:03:02.525Z,76.95
2018-03-23T11:05:30.946Z,76.96
2018-03-23T11:07:59.341Z,77.50
2018-03-23T11:10:27.774Z,77.91
2018-03-23T11:12:56.167Z,76.57
2018-03-23T11:15:24.583Z,78.57
2018-03-23T11:17:53.105Z,78.84
2018-03-23T11:20:21.504Z,77.31
2018-03-23T11:22:49.894Z,77.60
2018-03-23T11:25:18.350Z,77.63
2018-03-23T11:27:46.746Z,76.48
2018-03-23T11:30:15.162Z,77.20
2018-03-23T11:32:43.604Z,76.64
2018-03-23T11:35:11.997Z,76.50
2018-03-23T11:37:40.398Z,76.75
2018-03-23T11:40:08.854Z,77.14
2018-03-23T11:42:37.256Z,76.07
2018-03-23T11:45:05.674Z,73.49
2018-03-23T11:47:34.126Z,74.03
2018-03-23T11:50:02.522Z,74.75
2018-03-23T11:52:30.917Z,74.29
2018-03-23T11:54:59.402Z,73.80
2018-03-23T11:57:27.807Z,73.41
2018-03-23T11:59:56.202Z,72.88
2018-03-23T12:02:24.667Z,72.64
2018-03-23T12:04:53.078Z,73.00
2018-03-23T12:07:21.486Z,73.75
2018-03-23T12:09:49.937Z,73.64
2018-03-23T12:12:18.333Z,73.70
2018-03-23T12:14:46.743Z,71.97
2018-03-23T12:17:15.202Z,71.67
2018-03-23T12:19:43.593Z,70.74
2018-03-23T12:22:11.992Z,68.84
2018-03-23T12:24:40.491Z,69.94
2018-03-23T12:27:08.858Z,68.91
2018-03-23T12:29:37.259Z,70.00
2018-03-23T12:32:05.732Z,69.48
2018-03-23T12:34:34.138Z,69.83
2018-03-23T12:37:02.542Z,70.41
2018-03-23T12:39:30.994Z,70.38
2018-03-23T12:41:59.389Z,69.27
2018-03-23T12:44:27.793Z,68.12
2018-03-23T12:46:56.254Z,69.72
2018-03-23T12:49:24.657Z,70.52
2018-03-23T12:51:53.062Z,69.76
2018-03-23T12:54:21.518Z,69.72
2018-03-23T12:56:49.923Z,69.30
2018-03-23T12:59:18.337Z,68.59
2018-03-23T13:01:46.804Z,69.25
2018-03-23T13:04:15.210Z,69.56
2018-03-23T13:06:43.625Z,68.12
2018-03-23T13:09:12.086Z,69.44
2018-03-23T13:11:40.506Z,70.31
2018-03-23T13:14:08.901Z,70.73
2018-03-23T13:16:37.351Z,70.17
2018-03-23T13:19:05.757Z,69.69
2018-03-23T13:21:34.163Z,68.55
2018-03-23T13:24:02.717Z,68.69
2018-03-23T13:26:31.126Z,69.12
2018-03-23T13:28:59.534Z,69.79
2018-03-23T13:31:27.993Z,69.57
2018-03-23T13:33:56.397Z,67.65
2018-03-23T13:36:24.802Z,67.84
2018-03-23T13:38:53.266Z,66.69
2018-03-23T13:41:21.673Z,65.83
2018-03-23T13:43:50.090Z,65.69
2018-03-23T13:46:18.559Z,66.45
2018-03-23T13:48:46.971Z,66.71
2018-03-23T13:51:15.377Z,66.36
2018-03-23T13:53:43.834Z,65.99
2018-03-23T13:56:12.286Z,66.38
2018-03-23T13:58:46.110Z,65.54
2018-03-23T14:01:20.014Z,65.76
2018-03-23T14:03:48.470Z,65.48
2018-03-23T14:06:16.870Z,65.31
2018-03-23T14:08:45.286Z,66.11
2018-03-23T14:11:13.750Z,66.10
2018-03-23T14:13:42.159Z,65.71
2018-03-23T14:16:10.566Z,65.90
2018-03-23T14:18:39.174Z,65.22
2018-03-23T14:21:07.586Z,65.53
2018-03-23T14:23:36.000Z,65.90
2018-03-23T14:26:04.541Z,66.18
2018-03-23T14:28:32.982Z,66.96
2018-03-23T14:31:01.386Z,66.50
2018-03-23T14:33:29.837Z,66.00
2018-03-23T14:35:58.246Z,65.99
2018-03-23T14:40:54.176Z,66.53
2018-03-23T14:43:22.582Z,66.62
2018-03-23T14:45:50.981Z,67.47
2018-03-23T14:48:19.433Z,67.99
2018-03-23T14:50:47.838Z,68.54
2018-03-23T14:53:16.238Z,69.45
2018-03-23T14:55:44.702Z,69.36
2018-03-23T14:58:13.102Z,69.00
2018-03-23T15:00:41.503Z,68.79
2018-03-23T15:03:10.062Z,68.79
2018-03-23T15:05:38.465Z,70.08
2018-03-23T15:08:06.866Z,69.03
2018-03-23T15:10:35.312Z,69.83
2018-03-23T15:13:03.738Z,69.57
2018-03-23T15:15:32.138Z,69.54
2018-03-23T15:18:00.599Z,69.96
2018-03-23T15:20:28.997Z,69.83
2018-03-23T15:22:57.403Z,70.35
2018-03-23T15:25:25.852Z,70.29
2018-03-23T15:27:54.250Z,70.79
2018-03-23T15:30:22.645Z,70.29
2018-03-23T15:32:51.094Z,70.18
2018-03-23T15:35:19.498Z,71.39
2018-03-23T15:37:47.897Z,72.24
2018-03-23T15:40:16.362Z,73.48
2018-03-23T15:42:44.765Z,73.30
2018-03-23T15:45:13.174Z,73.28
2018-03-23T15:47:41.622Z,73.39
2018-03-23T15:50:10.030Z,73.33
2018-03-23T15:52:38.442Z,73.57
2018-03-23T15:55:06.898Z,73.43
2018-03-23T15:57:35.306Z,73.80
2018-03-23T16:00:03.750Z,73.77
2018-03-23T16:02:32.213Z,74.07
2018-03-23T16:05:00.624Z,74.08
2018-03-23T16:07:29.040Z,74.09
2018-03-23T16:09:57.490Z,74.34
2018-03-23T16:12:25.898Z,74.25
2018-03-23T16:14:54.311Z,74.09
2018-03-23T16:17:22.794Z,73.88
2018-03-23T16:19:51.201Z,73.50
2018-03-23T16:22:19.627Z,73.24
2018-03-23T16:24:48.079Z,73.34
2018-03-23T16:27:16.489Z,73.46
2018-03-23T16:29:44.902Z,73.65
2018-03-23T16:32:13.358Z,73.64
2018-03-23T16:34:41.757Z,73.17
2018-03-23T16:37:10.168Z,73.50
2018-03-23T16:39:38.626Z,73.96
2018-03-23T16:42:07.052Z,74.29
2018-03-23T16:44:35.463Z,74.04
2018-03-23T16:47:03.941Z,74.65
2018-03-23T16:49:32.346Z,74.72
2018-03-23T16:52:00.766Z,74.16
2018-03-23T16:54:29.239Z,74.12
2018-03-23T16:56:57.650Z,74.27
2018-03-23T16:59:26.061Z,73.94
2018-03-23T17:01:54.518Z,74.00
2018-03-23T17:04:22.922Z,73.86
2018-03-23T17:06:51.355Z,74.04
2018-03-23T17:09:19.813Z,74.34
2018-03-23T17:11:48.222Z,74.44
2018-03-23T17:14:16.638Z,74.55
2018-03-23T17:16:45.089Z,74.63
2018-03-23T17:19:13.497Z,74.71
2018-03-23T17:21:41.906Z,74.75
2018-03-23T17:24:10.366Z,74.80
2018-03-23T17:26:38.775Z,74.76
2018-03-23T17:29:07.177Z,74.81
2018-03-23T17:31:35.634Z,74.99
2018-03-23T17:34:04.038Z,75.14
2018-03-23T17:36:32.443Z,75.16
2018-03-23T17:39:00.909Z,75.18
2018-03-23T17:41:29.315Z,75.05
2018-03-23T17:43:57.718Z,74.84
2018-03-23T17:46:26.178Z,74.87
2018-03-23T17:48:54.617Z,75.24
2018-03-23T17:51:23.029Z,75.28
2018-03-23T17:53:51.485Z,75.21
2018-03-23T17:56:19.897Z,75.29
2018-03-23T17:58:48.313Z,75.48
2018-03-23T18:01:16.770Z,75.65
2018-03-23T18:03:45.177Z,75.66
2018-03-23T18:06:13.589Z,76.19
2018-03-23T18:08:42.034Z,76.96
2018-03-23T18:11:10.438Z,76.85
2018-03-23T18:13:38.842Z,77.13
2018-03-23T18:16:07.305Z,77.49
2018-03-23T18:18:35.711Z,77.73
2018-03-23T18:21:04.128Z,77.86
2018-03-23T18:23:32.589Z,78.38
2018-03-23T18:26:00.993Z,78.50
2018-03-23T18:28:29.416Z,79.09
2018-03-23T18:30:57.886Z,78.96
2018-03-23T18:33:26.302Z,79.26
2018-03-23T18:35:54.714Z,79.11
2018-03-23T18:38:23.178Z,79.03
2018-03-23T18:40:51.586Z,79.16
2018-03-23T18:43:19.994Z,78.86
2018-03-23T18:45:48.465Z,78.70
2018-03-23T18:48:16.874Z,78.44
2018-03-23T18:50:45.285Z,78.62
2018-03-23T18:53:13.736Z,78.40
2018-03-23T18:55:42.146Z,78.43
2018-03-23T18:58:10.554Z,78.30
2018-03-23T19:00:39.003Z,78.29
2018-03-23T19:03:07.417Z,78.67
2018-03-23T19:05:35.833Z,78.38
2018-03-23T19:08:04.342Z,78.34
2018-03-23T19:10:32.750Z,78.16
2018-03-23T19:13:01.164Z,78.29
2018-03-23T19:15:29.650Z,78.19
2018-03-23T19:17:58.062Z,78.05
2018-03-23T19:20:26.468Z,77.86
2018-03-23T19:22:54.939Z,78.12
2018-03-23T19:25:23.346Z,78.10
2018-03-23T19:27:51.753Z,78.21
2018-03-23T19:30:20.237Z,78.38
2018-03-23T19:32:48.653Z,78.04
2018-03-23T19:35:17.064Z,78.07
2018-03-23T19:37:45.521Z,78.65
2018-03-23T19:40:13.937Z,78.48
2018-03-23T19:42:42.353Z,78.73
2018-03-23T19:45:10.878Z,78.45
2018-03-23T19:47:39.262Z,78.44
2018-03-23T19:50:07.666Z,78.47
2018-03-23T19:52:36.118Z,78.34
2018-03-23T19:55:04.547Z,78.30
2018-03-23T19:57:32.978Z,78.52
2018-03-23T20:00:01.726Z,78.72
2018-03-23T20:02:30.130Z,78.49
2018-03-23T20:04:58.539Z,78.40
2018-03-23T20:07:27.005Z,78.33
2018-03-23T20:09:55.413Z,78.69
2018-03-23T20:12:23.850Z,78.65
2018-03-23T20:14:52.306Z,78.70
2018-03-23T20:17:26.182Z,78.67
2018-03-23T20:19:54.755Z,78.55
2018-03-23T20:22:23.170Z,78.78
2018-03-23T20:24:51.578Z,78.90
2018-03-23T20:27:25.547Z,79.31
2018-03-23T20:29:53.955Z,79.32
2018-03-23T20:32:28.061Z,79.19
2018-03-23T20:34:56.462Z,78.96
2018-03-23T20:37:24.873Z,79.33
2018-03-23T20:39:53.322Z,79.38
2018-03-23T20:42:21.737Z,79.76
2018-03-23T20:44:50.153Z,79.62
2018-03-23T20:47:18.618Z,79.77
2018-03-23T20:49:47.034Z,79.94
2018-03-23T20:52:15.445Z,79.92
2018-03-23T20:54:43.931Z,79.87
2018-03-23T20:57:12.342Z,80.31
2018-03-23T20:59:40.750Z,80.80
2018-03-23T21:02:09.214Z,81.15
2018-03-23T21:04:37.650Z,81.49
2018-03-23T21:07:06.059Z,81.73
2018-03-23T21:09:34.533Z,81.85
2018-03-23T21:12:02.937Z,81.85
2018-03-23T21:14:31.370Z,82.02
2018-03-23T21:16:59.830Z,82.05
2018-03-23T21:19:28.250Z,81.90
2018-03-23T21:21:56.657Z,82.04
2018-03-23T21:24:25.106Z,81.86
2018-03-23T21:26:53.509Z,81.98
2018-03-23T21:29:21.918Z,81.56
2018-03-23T21:31:50.370Z,81.59
2018-03-23T21:34:18.780Z,81.19
2018-03-23T21:36:47.201Z,80.84
2018-03-23T21:39:15.660Z,80.72
2018-03-23T21:41:44.064Z,80.79
2018-03-23T21:44:12.618Z,80.17
2018-03-23T21:46:41.066Z,80.14
2018-03-23T21:49:09.497Z,80.06
2018-03-23T21:51:37.928Z,80.32
2018-03-23T21:54:06.430Z,80.26
2018-03-23T21:56:34.833Z,80.24
2018-03-23T21:59:03.278Z,80.55
2018-03-23T22:01:31.766Z,80.64
2018-03-23T22:04:00.175Z,80.40
2018-03-23T22:06:28.581Z,80.72
2018-03-23T22:08:57.036Z,80.79
2018-03-23T22:11:25.441Z,80.56
2018-03-23T22:13:53.845Z,80.85
2018-03-23T22:16:22.308Z,80.95
2018-03-23T22:18:50.724Z,80.70
2018-03-23T22:21:19.134Z,80.79
2018-03-23T22:23:47.597Z,80.95
2018-03-23T22:26:16.006Z,80.98
2018-03-23T22:28:44.426Z,81.21
2018-03-23T22:31:12.879Z,81.28
2018-03-23T22:33:41.285Z,81.24
2018-03-23T22:36:09.701Z,81.30
2018-03-23T22:38:38.184Z,81.06
2018-03-23T22:41:06.869Z,80.87
2018-03-23T22:43:35.274Z,80.95
2018-03-23T22:46:03.729Z,80.86
2018-03-23T22:48:32.137Z,81.08
2018-03-23T22:51:00.545Z,81.22
2018-03-23T22:53:28.993Z,81.26
2018-03-23T22:55:57.406Z,81.05
2018-03-23T22:58:25.806Z,81.08
2018-03-23T23:00:54.282Z,81.12
2018-03-23T23:03:22.726Z,81.07
2018-03-23T23:05:51.142Z,81.07
2018-03-23T23:08:19.596Z,81.32
2018-03-23T23:10:48.006Z,81.10
2018-03-23T23:13:16.414Z,80.89
2018-03-23T23:15:44.868Z,80.90
2018-03-23T23:18:13.278Z,80.81
2018-03-23T23:20:41.691Z,80.79
2018-03-23T23:23:10.141Z,80.69
2018-03-23T23:25:38.549Z,80.72
2018-03-23T23:28:06.953Z,80.58
2018-03-23T23:30:35.414Z,80.59
2018-03-23T23:33:03.818Z,80.30
2018-03-23T23:35:32.220Z,80.32
2018-03-23T23:38:00.775Z,80.14
2018-03-23T23:40:29.226Z,80.09
2018-03-23T23:42:57.639Z,80.36
2018-03-23T23:45:26.089Z,80.43
2018-03-23T23:47:54.494Z,80.68
2018-03-23T23:50:22.898Z,80.57
2018-03-23T23:52:51.346Z,80.57
2018-03-23T23:55:19.760Z,80.84
2018-03-23T23:57:48.169Z,80.72
